General Aviation Weather

Text Reports

Enter one or more of the following location identifiers separated by a space:

Zip Code, Four-Character ICAO or Three-Character IATA airport codes.

METAR - Aviation Routine Weather Report
KASH - Nashua, New Hampshire
Updated at 10:01 AM GMT on December 25, 2014 (5:01 AM EST):
SPECI KASH 251001Z AUTO 00000KT 1 1/4SM BR BKN002 04/04 A2946 RMK AO2 BKN V SCT
TAF - Terminal Area Forecast
KASH - Nashua, New Hampshire
Updated at 10:01 AM GMT on December 25, 2014 (5:01 AM EST):
No TAF is currently available for this location.
Decoded:
No decoded TAF is available.
PIREP - Pilot Weather Report
KASH - Nashua, New Hampshire
Updated at 10:01 AM GMT on December 25, 2014 (5:01 AM EST):
No PIREP is currently available for this location.
AIRMET - Airmens Meteorological Information
KASH - Nashua, New Hampshire
Updated at 10:01 AM GMT on December 25, 2014 (5:01 AM EST):
No AIRMET is currently available for this location.
SIGMET - Significant Meteorological Information
KASH - Nashua, New Hampshire
Updated at 10:01 AM GMT on December 25, 2014 (5:01 AM EST):
No SIGMET is currently available for this location.
NOTAM - Notice to Airmen
KASH - Nashua, New Hampshire
Updated at 10:01 AM GMT on December 25, 2014 (5:01 AM EST):
No NOTAM is currently available for this location.
Forecast Area
KASH - Nashua, New Hampshire
Updated at 10:01 AM GMT on December 25, 2014 (5:01 AM EST):
No NOTAM is currently available for this location.
Aviation Weather Maps